Feltwell, United Kingdom
Current Conditions -  °F | °C
As of 9:58 PM on Thursday 27 Nov 2014 (Local Time) from EGUL Reporting Station
Haze Haze  
Wind Chill: 51°   Ceiling: 6000
Heat Index: 51°   Visibility: 6mi
Dew Point: 51°   Wind: 6mph
Humidity: 100%   Direction: 130°SE
Pressure: 29.62"   Gusts: NA
Location:  52.49°N, 0.52°E
Report Text: EGUL 272158Z AUTO 13005KT 9000 BR SCT013 OVC060 10/10 A2962 RMK AO2 SLP034 T01030103
Loading
Personal Weather Stations






























Interactive Weather Map New forecast layout! Learn more

10-Day Weather Forecast

Advertisements
Track Severe Weather on mobile